sensor_id;sensor_type;location;lat;lon;timestamp;P1;durP1;ratioP1;P2;durP2;ratioP2
80313;SDS011;69628;47.516;18.828;2024-02-21T00:00:31;1.30;;;1.20;;
80313;SDS011;69628;47.516;18.828;2024-02-21T00:01:31;2.15;;;1.10;;
80313;SDS011;69628;47.516;18.828;2024-02-21T00:02:32;1.92;;;1.50;;
80313;SDS011;69628;47.516;18.828;2024-02-21T00:03:32;1.45;;;1.15;;
80313;SDS011;69628;47.516;18.828;2024-02-21T00:04:32;1.40;;;1.00;;
80313;SDS011;69628;47.516;18.828;2024-02-21T00:05:33;1.48;;;1.38;;
80313;SDS011;69628;47.516;18.828;2024-02-21T00:06:33;9.30;;;2.08;;
80313;SDS011;69628;47.516;18.828;2024-02-21T00:07:34;2.67;;;1.67;;
80313;SDS011;69628;47.516;18.828;2024-02-21T00:08:34;2.03;;;1.85;;
80313;SDS011;69628;47.516;18.828;2024-02-21T00:09:34;1.63;;;1.25;;
80313;SDS011;69628;47.516;18.828;2024-02-21T00:10:35;1.48;;;1.15;;
80313;SDS011;69628;47.516;18.828;2024-02-21T00:11:35;2.17;;;1.38;;
80313;SDS011;69628;47.516;18.828;2024-02-21T00:12:36;4.85;;;1.30;;
80313;SDS011;69628;47.516;18.828;2024-02-21T00:13:36;1.63;;;1.38;;
80313;SDS011;69628;47.516;18.828;2024-02-21T00:14:36;1.75;;;1.15;;
80313;SDS011;69628;47.516;18.828;2024-02-21T00:15:37;2.35;;;1.42;;
80313;SDS011;69628;47.516;18.828;2024-02-21T00:16:37;2.47;;;1.45;;
80313;SDS011;69628;47.516;18.828;2024-02-21T00:17:38;2.22;;;1.30;;
80313;SDS011;69628;47.516;18.828;2024-02-21T00:18:38;2.67;;;1.20;;
80313;SDS011;69628;47.516;18.828;2024-02-21T00:19:38;1.20;;;1.10;;
80313;SDS011;69628;47.516;18.828;2024-02-21T00:20:39;2.17;;;1.10;;
80313;SDS011;69628;47.516;18.828;2024-02-21T00:21:39;1.85;;;1.35;;
80313;SDS011;69628;47.516;18.828;2024-02-21T00:22:39;1.63;;;1.10;;
80313;SDS011;69628;47.516;18.828;2024-02-21T00:23:40;3.28;;;1.30;;
80313;SDS011;69628;47.516;18.828;2024-02-21T00:24:41;2.38;;;1.42;;
80313;SDS011;69628;47.516;18.828;2024-02-21T00:25:42;4.30;;;1.83;;
80313;SDS011;69628;47.516;18.828;2024-02-21T00:26:42;1.05;;;1.00;;
80313;SDS011;69628;47.516;18.828;2024-02-21T00:27:42;1.92;;;0.95;;
80313;SDS011;69628;47.516;18.828;2024-02-21T00:28:43;4.80;;;1.10;;
80313;SDS011;69628;47.516;18.828;2024-02-21T00:29:43;0.82;;;0.82;;
80313;SDS011;69628;47.516;18.828;2024-02-21T00:30:43;2.78;;;1.40;;
80313;SDS011;69628;47.516;18.828;2024-02-21T00:31:44;1.73;;;1.20;;
80313;SDS011;69628;47.516;18.828;2024-02-21T00:32:44;1.48;;;1.17;;
80313;SDS011;69628;47.516;18.828;2024-02-21T00:33:45;0.88;;;0.88;;
80313;SDS011;69628;47.516;18.828;2024-02-21T00:34:45;1.70;;;1.42;;
80313;SDS011;69628;47.516;18.828;2024-02-21T00:35:45;1.00;;;0.90;;
80313;SDS011;69628;47.516;18.828;2024-02-21T00:36:46;1.83;;;1.00;;
80313;SDS011;69628;47.516;18.828;2024-02-21T00:37:46;1.15;;;1.05;;
80313;SDS011;69628;47.516;18.828;2024-02-21T00:38:46;5.57;;;1.38;;
80313;SDS011;69628;47.516;18.828;2024-02-21T00:39:47;1.48;;;1.02;;
80313;SDS011;69628;47.516;18.828;2024-02-21T00:40:47;1.38;;;0.95;;
80313;SDS011;69628;47.516;18.828;2024-02-21T00:41:47;3.28;;;0.88;;
80313;SDS011;69628;47.516;18.828;2024-02-21T00:42:48;2.65;;;1.33;;
80313;SDS011;69628;47.516;18.828;2024-02-21T00:43:48;1.23;;;0.93;;
80313;SDS011;69628;47.516;18.828;2024-02-21T00:44:50;5.03;;;1.42;;
80313;SDS011;69628;47.516;18.828;2024-02-21T00:45:50;3.40;;;1.63;;
80313;SDS011;69628;47.516;18.828;2024-02-21T00:46:50;1.77;;;1.15;;
80313;SDS011;69628;47.516;18.828;2024-02-21T00:47:52;1.17;;;0.88;;
80313;SDS011;69628;47.516;18.828;2024-02-21T00:48:52;1.38;;;1.20;;
80313;SDS011;69628;47.516;18.828;2024-02-21T00:49:53;1.77;;;1.30;;
80313;SDS011;69628;47.516;18.828;2024-02-21T00:50:53;1.33;;;1.10;;
80313;SDS011;69628;47.516;18.828;2024-02-21T00:51:53;1.67;;;1.30;;
80313;SDS011;69628;47.516;18.828;2024-02-21T00:52:54;2.78;;;1.20;;
80313;SDS011;69628;47.516;18.828;2024-02-21T00:53:54;1.63;;;1.08;;
80313;SDS011;69628;47.516;18.828;2024-02-21T00:54:55;1.48;;;1.20;;
80313;SDS011;69628;47.516;18.828;2024-02-21T00:55:55;3.00;;;1.63;;
80313;SDS011;69628;47.516;18.828;2024-02-21T00:56:56;1.23;;;1.02;;
80313;SDS011;69628;47.516;18.828;2024-02-21T00:57:57;1.45;;;1.20;;
80313;SDS011;69628;47.516;18.828;2024-02-21T00:58:57;1.05;;;0.75;;
80313;SDS011;69628;47.516;18.828;2024-02-21T00:59:57;4.85;;;1.13;;
80313;SDS011;69628;47.516;18.828;2024-02-21T01:00:58;1.75;;;1.10;;
80313;SDS011;69628;47.516;18.828;2024-02-21T01:01:58;0.80;;;0.80;;
80313;SDS011;69628;47.516;18.828;2024-02-21T01:02:59;0.88;;;0.73;;
80313;SDS011;69628;47.516;18.828;2024-02-21T01:03:59;2.13;;;1.15;;
80313;SDS011;69628;47.516;18.828;2024-02-21T01:05:00;1.50;;;1.30;;
80313;SDS011;69628;47.516;18.828;2024-02-21T01:06:02;2.55;;;1.27;;
80313;SDS011;69628;47.516;18.828;2024-02-21T01:07:02;1.75;;;1.00;;
80313;SDS011;69628;47.516;18.828;2024-02-21T01:08:03;0.73;;;0.73;;
80313;SDS011;69628;47.516;18.828;2024-02-21T01:09:04;1.80;;;1.02;;
80313;SDS011;69628;47.516;18.828;2024-02-21T01:10:04;2.42;;;0.85;;
80313;SDS011;69628;47.516;18.828;2024-02-21T01:11:05;2.92;;;1.15;;
80313;SDS011;69628;47.516;18.828;2024-02-21T01:12:05;1.15;;;0.88;;
80313;SDS011;69628;47.516;18.828;2024-02-21T01:13:06;5.55;;;1.92;;
80313;SDS011;69628;47.516;18.828;2024-02-21T01:14:07;3.78;;;1.88;;
80313;SDS011;69628;47.516;18.828;2024-02-21T01:15:07;2.38;;;1.38;;
80313;SDS011;69628;47.516;18.828;2024-02-21T01:16:08;1.70;;;1.38;;
80313;SDS011;69628;47.516;18.828;2024-02-21T01:17:08;4.45;;;1.90;;
80313;SDS011;69628;47.516;18.828;2024-02-21T01:18:09;2.95;;;1.77;;
80313;SDS011;69628;47.516;18.828;2024-02-21T01:19:09;1.33;;;1.00;;
80313;SDS011;69628;47.516;18.828;2024-02-21T01:20:09;2.53;;;1.35;;
80313;SDS011;69628;47.516;18.828;2024-02-21T01:21:10;2.25;;;1.52;;
80313;SDS011;69628;47.516;18.828;2024-02-21T01:22:11;2.47;;;1.15;;
80313;SDS011;69628;47.516;18.828;2024-02-21T01:23:11;1.40;;;1.30;;
80313;SDS011;69628;47.516;18.828;2024-02-21T01:24:12;3.63;;;1.38;;
80313;SDS011;69628;47.516;18.828;2024-02-21T01:25:12;2.22;;;1.17;;
80313;SDS011;69628;47.516;18.828;2024-02-21T01:26:12;1.15;;;1.02;;
80313;SDS011;69628;47.516;18.828;2024-02-21T01:27:15;2.67;;;1.17;;
80313;SDS011;69628;47.516;18.828;2024-02-21T01:28:15;1.40;;;1.05;;
80313;SDS011;69628;47.516;18.828;2024-02-21T01:29:16;4.35;;;1.52;;
80313;SDS011;69628;47.516;18.828;2024-02-21T01:30:16;1.08;;;0.98;;
80313;SDS011;69628;47.516;18.828;2024-02-21T01:31:17;1.92;;;1.33;;
80313;SDS011;69628;47.516;18.828;2024-02-21T01:32:17;3.00;;;1.35;;
80313;SDS011;69628;47.516;18.828;2024-02-21T01:33:18;1.73;;;1.05;;
80313;SDS011;69628;47.516;18.828;2024-02-21T01:34:19;1.58;;;1.38;;
80313;SDS011;69628;47.516;18.828;2024-02-21T01:35:19;2.33;;;1.05;;
80313;SDS011;69628;47.516;18.828;2024-02-21T01:36:19;3.40;;;1.48;;
80313;SDS011;69628;47.516;18.828;2024-02-21T01:37:20;1.83;;;1.40;;
80313;SDS011;69628;47.516;18.828;2024-02-21T01:38:20;1.27;;;0.82;;
80313;SDS011;69628;47.516;18.828;2024-02-21T01:39:21;2.38;;;1.30;;
80313;SDS011;69628;47.516;18.828;2024-02-21T01:40:21;1.27;;;1.17;;
80313;SDS011;69628;47.516;18.828;2024-02-21T01:41:21;7.32;;;1.23;;
80313;SDS011;69628;47.516;18.828;2024-02-21T01:42:22;1.40;;;1.08;;
80313;SDS011;69628;47.516;18.828;2024-02-21T01:43:22;2.60;;;1.80;;
80313;SDS011;69628;47.516;18.828;2024-02-21T01:44:22;2.03;;;1.73;;
80313;SDS011;69628;47.516;18.828;2024-02-21T01:45:23;1.42;;;1.30;;
80313;SDS011;69628;47.516;18.828;2024-02-21T01:46:24;3.35;;;1.02;;
80313;SDS011;69628;47.516;18.828;2024-02-21T01:47:28;7.78;;;1.42;;
80313;SDS011;69628;47.516;18.828;2024-02-21T01:48:28;2.95;;;1.58;;
80313;SDS011;69628;47.516;18.828;2024-02-21T01:49:29;1.42;;;1.33;;
80313;SDS011;69628;47.516;18.828;2024-02-21T01:50:30;3.17;;;1.40;;
80313;SDS011;69628;47.516;18.828;2024-02-21T01:51:30;2.85;;;1.33;;
80313;SDS011;69628;47.516;18.828;2024-02-21T01:52:31;3.80;;;1.80;;
80313;SDS011;69628;47.516;18.828;2024-02-21T01:53:35;2.88;;;1.45;;
80313;SDS011;69628;47.516;18.828;2024-02-21T01:54:37;7.32;;;1.75;;
80313;SDS011;69628;47.516;18.828;2024-02-21T01:55:38;2.78;;;1.52;;
80313;SDS011;69628;47.516;18.828;2024-02-21T01:56:38;1.80;;;1.30;;
80313;SDS011;69628;47.516;18.828;2024-02-21T01:57:40;1.70;;;1.00;;
80313;SDS011;69628;47.516;18.828;2024-02-21T01:58:41;1.60;;;1.50;;
80313;SDS011;69628;47.516;18.828;2024-02-21T01:59:42;1.35;;;1.25;;
80313;SDS011;69628;47.516;18.828;2024-02-21T02:00:43;6.20;;;1.52;;
80313;SDS011;69628;47.516;18.828;2024-02-21T02:01:44;1.90;;;1.73;;
80313;SDS011;69628;47.516;18.828;2024-02-21T02:02:46;2.17;;;1.52;;
80313;SDS011;69628;47.516;18.828;2024-02-21T02:03:47;4.68;;;1.50;;
80313;SDS011;69628;47.516;18.828;2024-02-21T02:04:47;2.63;;;1.77;;
80313;SDS011;69628;47.516;18.828;2024-02-21T02:05:48;9.77;;;1.60;;
80313;SDS011;69628;47.516;18.828;2024-02-21T02:06:50;1.83;;;1.52;;
80313;SDS011;69628;47.516;18.828;2024-02-21T02:07:50;2.55;;;1.60;;
80313;SDS011;69628;47.516;18.828;2024-02-21T02:08:51;1.60;;;1.50;;
80313;SDS011;69628;47.516;18.828;2024-02-21T02:09:52;2.22;;;1.55;;
80313;SDS011;69628;47.516;18.828;2024-02-21T02:10:52;3.28;;;1.95;;
80313;SDS011;69628;47.516;18.828;2024-02-21T02:11:53;1.75;;;1.35;;
80313;SDS011;69628;47.516;18.828;2024-02-21T02:12:53;2.78;;;1.92;;
80313;SDS011;69628;47.516;18.828;2024-02-21T02:13:53;2.40;;;1.40;;
80313;SDS011;69628;47.516;18.828;2024-02-21T02:15:01;2.67;;;2.38;;
80313;SDS011;69628;47.516;18.828;2024-02-21T02:16:04;10.50;;;2.45;;
80313;SDS011;69628;47.516;18.828;2024-02-21T02:17:05;5.80;;;1.77;;
80313;SDS011;69628;47.516;18.828;2024-02-21T02:18:05;3.88;;;1.48;;
80313;SDS011;69628;47.516;18.828;2024-02-21T02:19:06;4.95;;;1.55;;
80313;SDS011;69628;47.516;18.828;2024-02-21T02:20:06;2.95;;;1.60;;
80313;SDS011;69628;47.516;18.828;2024-02-21T02:21:10;2.30;;;1.70;;
80313;SDS011;69628;47.516;18.828;2024-02-21T02:22:14;2.72;;;1.85;;
80313;SDS011;69628;47.516;18.828;2024-02-21T02:23:25;1.48;;;1.20;;
80313;SDS011;69628;47.516;18.828;2024-02-21T02:24:31;3.50;;;1.40;;
80313;SDS011;69628;47.516;18.828;2024-02-21T02:25:32;1.85;;;1.45;;
80313;SDS011;69628;47.516;18.828;2024-02-21T02:26:32;2.55;;;1.50;;
80313;SDS011;69628;47.516;18.828;2024-02-21T02:27:32;6.10;;;2.13;;
80313;SDS011;69628;47.516;18.828;2024-02-21T02:28:33;3.22;;;1.40;;
80313;SDS011;69628;47.516;18.828;2024-02-21T02:29:33;13.27;;;1.75;;
80313;SDS011;69628;47.516;18.828;2024-02-21T02:30:34;4.32;;;1.35;;
80313;SDS011;69628;47.516;18.828;2024-02-21T02:31:37;2.85;;;1.48;;
80313;SDS011;69628;47.516;18.828;2024-02-21T02:32:38;3.05;;;1.88;;
80313;SDS011;69628;47.516;18.828;2024-02-21T02:33:38;1.73;;;1.55;;
80313;SDS011;69628;47.516;18.828;2024-02-21T02:34:39;2.65;;;1.83;;
80313;SDS011;69628;47.516;18.828;2024-02-21T02:35:39;2.53;;;1.60;;
80313;SDS011;69628;47.516;18.828;2024-02-21T02:36:40;4.78;;;1.70;;
80313;SDS011;69628;47.516;18.828;2024-02-21T02:37:40;3.25;;;1.67;;
80313;SDS011;69628;47.516;18.828;2024-02-21T02:38:47;5.97;;;1.48;;
80313;SDS011;69628;47.516;18.828;2024-02-21T02:39:48;4.38;;;1.50;;
80313;SDS011;69628;47.516;18.828;2024-02-21T02:40:49;6.20;;;2.05;;
80313;SDS011;69628;47.516;18.828;2024-02-21T02:41:49;3.22;;;1.77;;
80313;SDS011;69628;47.516;18.828;2024-02-21T02:42:50;3.92;;;1.52;;
80313;SDS011;69628;47.516;18.828;2024-02-21T02:43:51;3.17;;;1.42;;
80313;SDS011;69628;47.516;18.828;2024-02-21T02:44:51;6.28;;;1.85;;
80313;SDS011;69628;47.516;18.828;2024-02-21T02:45:51;3.08;;;1.55;;
80313;SDS011;69628;47.516;18.828;2024-02-21T02:46:52;1.92;;;1.48;;
80313;SDS011;69628;47.516;18.828;2024-02-21T02:47:52;1.50;;;1.40;;
80313;SDS011;69628;47.516;18.828;2024-02-21T02:48:59;8.25;;;1.90;;
80313;SDS011;69628;47.516;18.828;2024-02-21T02:50:00;2.60;;;1.38;;
80313;SDS011;69628;47.516;18.828;2024-02-21T02:51:00;2.45;;;1.45;;
80313;SDS011;69628;47.516;18.828;2024-02-21T02:52:01;3.08;;;1.25;;
80313;SDS011;69628;47.516;18.828;2024-02-21T02:53:01;2.38;;;1.70;;
80313;SDS011;69628;47.516;18.828;2024-02-21T02:54:02;3.28;;;1.98;;
80313;SDS011;69628;47.516;18.828;2024-02-21T02:55:03;5.03;;;1.60;;
80313;SDS011;69628;47.516;18.828;2024-02-21T02:56:04;3.60;;;1.13;;
80313;SDS011;69628;47.516;18.828;2024-02-21T02:57:04;5.68;;;1.45;;
80313;SDS011;69628;47.516;18.828;2024-02-21T02:58:05;3.65;;;2.00;;
80313;SDS011;69628;47.516;18.828;2024-02-21T02:59:06;2.88;;;1.70;;
80313;SDS011;69628;47.516;18.828;2024-02-21T03:00:06;1.95;;;1.35;;
80313;SDS011;69628;47.516;18.828;2024-02-21T03:01:10;1.60;;;1.13;;
80313;SDS011;69628;47.516;18.828;2024-02-21T03:02:11;3.13;;;1.60;;
80313;SDS011;69628;47.516;18.828;2024-02-21T03:03:11;1.80;;;1.27;;
80313;SDS011;69628;47.516;18.828;2024-02-21T03:04:12;1.75;;;1.20;;
80313;SDS011;69628;47.516;18.828;2024-02-21T03:05:19;5.88;;;1.95;;
80313;SDS011;69628;47.516;18.828;2024-02-21T03:06:20;3.80;;;1.40;;
80313;SDS011;69628;47.516;18.828;2024-02-21T03:07:21;1.73;;;1.40;;
80313;SDS011;69628;47.516;18.828;2024-02-21T03:08:21;6.40;;;2.25;;
80313;SDS011;69628;47.516;18.828;2024-02-21T03:09:22;2.35;;;1.15;;
80313;SDS011;69628;47.516;18.828;2024-02-21T03:10:23;2.33;;;1.52;;
80313;SDS011;69628;47.516;18.828;2024-02-21T03:11:23;6.45;;;1.95;;
80313;SDS011;69628;47.516;18.828;2024-02-21T03:12:28;3.65;;;1.30;;
80313;SDS011;69628;47.516;18.828;2024-02-21T03:13:29;8.63;;;1.73;;
80313;SDS011;69628;47.516;18.828;2024-02-21T03:14:30;3.15;;;1.80;;
80313;SDS011;69628;47.516;18.828;2024-02-21T03:15:30;1.75;;;1.50;;
80313;SDS011;69628;47.516;18.828;2024-02-21T03:16:30;2.08;;;1.40;;
80313;SDS011;69628;47.516;18.828;2024-02-21T03:17:31;2.13;;;1.60;;
80313;SDS011;69628;47.516;18.828;2024-02-21T03:18:32;4.22;;;1.38;;
80313;SDS011;69628;47.516;18.828;2024-02-21T03:19:33;2.55;;;1.40;;
80313;SDS011;69628;47.516;18.828;2024-02-21T03:20:33;2.38;;;1.48;;
80313;SDS011;69628;47.516;18.828;2024-02-21T03:21:33;2.03;;;1.40;;
80313;SDS011;69628;47.516;18.828;2024-02-21T03:22:34;2.80;;;1.65;;
80313;SDS011;69628;47.516;18.828;2024-02-21T03:23:34;2.47;;;1.67;;
80313;SDS011;69628;47.516;18.828;2024-02-21T03:24:35;7.32;;;1.75;;
80313;SDS011;69628;47.516;18.828;2024-02-21T03:25:35;1.50;;;1.10;;
80313;SDS011;69628;47.516;18.828;2024-02-21T03:26:36;2.35;;;1.48;;
80313;SDS011;69628;47.516;18.828;2024-02-21T03:27:36;2.25;;;1.70;;
80313;SDS011;69628;47.516;18.828;2024-02-21T03:28:37;2.13;;;1.50;;
80313;SDS011;69628;47.516;18.828;2024-02-21T03:29:39;1.88;;;1.25;;
80313;SDS011;69628;47.516;18.828;2024-02-21T03:30:40;2.83;;;1.80;;
80313;SDS011;69628;47.516;18.828;2024-02-21T03:31:40;2.85;;;1.70;;
80313;SDS011;69628;47.516;18.828;2024-02-21T03:32:41;2.90;;;1.73;;
80313;SDS011;69628;47.516;18.828;2024-02-21T03:33:42;2.20;;;1.30;;
80313;SDS011;69628;47.516;18.828;2024-02-21T03:34:42;3.22;;;2.17;;
80313;SDS011;69628;47.516;18.828;2024-02-21T03:35:43;3.03;;;1.50;;
80313;SDS011;69628;47.516;18.828;2024-02-21T03:36:43;1.75;;;1.52;;
80313;SDS011;69628;47.516;18.828;2024-02-21T03:37:44;3.85;;;1.67;;
80313;SDS011;69628;47.516;18.828;2024-02-21T03:38:45;5.57;;;2.15;;
80313;SDS011;69628;47.516;18.828;2024-02-21T03:39:45;7.28;;;3.20;;
80313;SDS011;69628;47.516;18.828;2024-02-21T03:40:46;7.60;;;3.58;;
80313;SDS011;69628;47.516;18.828;2024-02-21T03:41:46;10.32;;;3.78;;
80313;SDS011;69628;47.516;18.828;2024-02-21T03:42:47;6.75;;;3.33;;
80313;SDS011;69628;47.516;18.828;2024-02-21T03:43:47;9.65;;;3.60;;
80313;SDS011;69628;47.516;18.828;2024-02-21T03:44:48;15.02;;;3.40;;
80313;SDS011;69628;47.516;18.828;2024-02-21T03:45:48;12.93;;;4.38;;
80313;SDS011;69628;47.516;18.828;2024-02-21T03:46:49;9.10;;;3.60;;
80313;SDS011;69628;47.516;18.828;2024-02-21T03:47:49;11.55;;;3.95;;
80313;SDS011;69628;47.516;18.828;2024-02-21T03:48:49;10.20;;;4.47;;
80313;SDS011;69628;47.516;18.828;2024-02-21T03:49:50;9.93;;;4.43;;
80313;SDS011;69628;47.516;18.828;2024-02-21T03:50:50;10.80;;;4.72;;
80313;SDS011;69628;47.516;18.828;2024-02-21T03:51:51;9.02;;;3.55;;
80313;SDS011;69628;47.516;18.828;2024-02-21T03:52:51;5.68;;;2.72;;
80313;SDS011;69628;47.516;18.828;2024-02-21T03:53:52;10.13;;;3.40;;
80313;SDS011;69628;47.516;18.828;2024-02-21T03:54:52;6.60;;;3.05;;
80313;SDS011;69628;47.516;18.828;2024-02-21T03:55:55;4.05;;;2.58;;
80313;SDS011;69628;47.516;18.828;2024-02-21T03:56:56;10.98;;;3.45;;
80313;SDS011;69628;47.516;18.828;2024-02-21T03:57:56;5.82;;;2.80;;
80313;SDS011;69628;47.516;18.828;2024-02-21T03:58:57;4.82;;;2.35;;
80313;SDS011;69628;47.516;18.828;2024-02-21T03:59:58;6.35;;;2.88;;
80313;SDS011;69628;47.516;18.828;2024-02-21T04:01:01;6.88;;;2.70;;
80313;SDS011;69628;47.516;18.828;2024-02-21T04:02:02;4.93;;;3.17;;
80313;SDS011;69628;47.516;18.828;2024-02-21T04:03:08;9.90;;;3.00;;
80313;SDS011;69628;47.516;18.828;2024-02-21T04:04:09;10.55;;;3.20;;
80313;SDS011;69628;47.516;18.828;2024-02-21T04:05:10;9.18;;;3.60;;
80313;SDS011;69628;47.516;18.828;2024-02-21T04:06:11;6.35;;;2.92;;
80313;SDS011;69628;47.516;18.828;2024-02-21T04:07:11;5.53;;;3.63;;
80313;SDS011;69628;47.516;18.828;2024-02-21T04:08:13;7.97;;;3.10;;
80313;SDS011;69628;47.516;18.828;2024-02-21T04:09:13;6.65;;;3.65;;
80313;SDS011;69628;47.516;18.828;2024-02-21T04:10:14;8.43;;;3.95;;
80313;SDS011;69628;47.516;18.828;2024-02-21T04:11:14;5.80;;;2.90;;
80313;SDS011;69628;47.516;18.828;2024-02-21T04:12:14;7.45;;;3.40;;
80313;SDS011;69628;47.516;18.828;2024-02-21T04:13:15;5.50;;;3.03;;
80313;SDS011;69628;47.516;18.828;2024-02-21T04:14:15;6.88;;;3.72;;
80313;SDS011;69628;47.516;18.828;2024-02-21T04:15:16;7.20;;;3.10;;
80313;SDS011;69628;47.516;18.828;2024-02-21T04:16:17;4.80;;;2.65;;
80313;SDS011;69628;47.516;18.828;2024-02-21T04:17:17;6.13;;;3.53;;
80313;SDS011;69628;47.516;18.828;2024-02-21T04:18:18;8.60;;;3.75;;
80313;SDS011;69628;47.516;18.828;2024-02-21T04:19:18;16.95;;;4.40;;
80313;SDS011;69628;47.516;18.828;2024-02-21T04:20:18;8.13;;;3.67;;
80313;SDS011;69628;47.516;18.828;2024-02-21T04:21:19;5.22;;;3.00;;
80313;SDS011;69628;47.516;18.828;2024-02-21T04:22:19;8.98;;;3.72;;
80313;SDS011;69628;47.516;18.828;2024-02-21T04:23:19;6.97;;;3.53;;
80313;SDS011;69628;47.516;18.828;2024-02-21T04:24:20;10.63;;;3.75;;
80313;SDS011;69628;47.516;18.828;2024-02-21T04:25:20;12.60;;;4.32;;
80313;SDS011;69628;47.516;18.828;2024-02-21T04:26:21;12.77;;;3.60;;
80313;SDS011;69628;47.516;18.828;2024-02-21T04:27:21;7.40;;;3.63;;
80313;SDS011;69628;47.516;18.828;2024-02-21T04:28:22;11.43;;;4.70;;
80313;SDS011;69628;47.516;18.828;2024-02-21T04:29:22;8.15;;;3.65;;
80313;SDS011;69628;47.516;18.828;2024-02-21T04:30:23;7.75;;;4.40;;
80313;SDS011;69628;47.516;18.828;2024-02-21T04:31:23;7.25;;;3.83;;
80313;SDS011;69628;47.516;18.828;2024-02-21T04:32:24;7.10;;;3.83;;
80313;SDS011;69628;47.516;18.828;2024-02-21T04:33:27;4.93;;;2.97;;
80313;SDS011;69628;47.516;18.828;2024-02-21T04:34:27;5.40;;;3.10;;
80313;SDS011;69628;47.516;18.828;2024-02-21T04:35:28;13.40;;;4.03;;
80313;SDS011;69628;47.516;18.828;2024-02-21T04:36:28;6.53;;;3.67;;
80313;SDS011;69628;47.516;18.828;2024-02-21T04:37:28;9.55;;;4.28;;
80313;SDS011;69628;47.516;18.828;2024-02-21T04:38:29;8.13;;;3.50;;
80313;SDS011;69628;47.516;18.828;2024-02-21T04:39:31;8.95;;;3.95;;
80313;SDS011;69628;47.516;18.828;2024-02-21T04:40:31;17.10;;;4.88;;
80313;SDS011;69628;47.516;18.828;2024-02-21T04:41:32;10.32;;;4.45;;
80313;SDS011;69628;47.516;18.828;2024-02-21T04:42:32;7.68;;;3.97;;
80313;SDS011;69628;47.516;18.828;2024-02-21T04:43:33;10.70;;;5.38;;
80313;SDS011;69628;47.516;18.828;2024-02-21T04:44:33;6.30;;;3.05;;
80313;SDS011;69628;47.516;18.828;2024-02-21T04:45:33;9.15;;;4.57;;
80313;SDS011;69628;47.516;18.828;2024-02-21T04:46:34;6.25;;;3.05;;
80313;SDS011;69628;47.516;18.828;2024-02-21T04:47:34;8.57;;;3.78;;
80313;SDS011;69628;47.516;18.828;2024-02-21T04:48:34;12.77;;;3.90;;
80313;SDS011;69628;47.516;18.828;2024-02-21T04:49:35;5.78;;;3.20;;
80313;SDS011;69628;47.516;18.828;2024-02-21T04:50:35;10.43;;;3.55;;
80313;SDS011;69628;47.516;18.828;2024-02-21T04:51:35;6.80;;;3.92;;
80313;SDS011;69628;47.516;18.828;2024-02-21T04:52:36;7.07;;;3.58;;
80313;SDS011;69628;47.516;18.828;2024-02-21T04:53:36;7.50;;;2.70;;
80313;SDS011;69628;47.516;18.828;2024-02-21T04:54:37;6.60;;;3.40;;
80313;SDS011;69628;47.516;18.828;2024-02-21T04:55:37;6.85;;;2.50;;
80313;SDS011;69628;47.516;18.828;2024-02-21T04:56:38;4.75;;;2.20;;
80313;SDS011;69628;47.516;18.828;2024-02-21T04:57:38;4.95;;;2.42;;
80313;SDS011;69628;47.516;18.828;2024-02-21T04:58:39;3.33;;;1.75;;
80313;SDS011;69628;47.516;18.828;2024-02-21T04:59:39;5.65;;;2.67;;
80313;SDS011;69628;47.516;18.828;2024-02-21T05:00:40;8.57;;;2.17;;
80313;SDS011;69628;47.516;18.828;2024-02-21T05:01:40;5.70;;;2.65;;
80313;SDS011;69628;47.516;18.828;2024-02-21T05:02:41;6.07;;;2.05;;
80313;SDS011;69628;47.516;18.828;2024-02-21T05:03:41;6.22;;;2.88;;
80313;SDS011;69628;47.516;18.828;2024-02-21T05:04:44;4.68;;;2.33;;
80313;SDS011;69628;47.516;18.828;2024-02-21T05:05:45;4.95;;;2.70;;
80313;SDS011;69628;47.516;18.828;2024-02-21T05:06:45;6.47;;;2.63;;
80313;SDS011;69628;47.516;18.828;2024-02-21T05:07:46;5.38;;;2.25;;
80313;SDS011;69628;47.516;18.828;2024-02-21T05:08:46;10.98;;;3.58;;
80313;SDS011;69628;47.516;18.828;2024-02-21T05:09:47;2.22;;;1.60;;
80313;SDS011;69628;47.516;18.828;2024-02-21T05:10:48;7.20;;;2.85;;
80313;SDS011;69628;47.516;18.828;2024-02-21T05:11:48;5.07;;;2.53;;
80313;SDS011;69628;47.516;18.828;2024-02-21T05:12:48;9.30;;;2.88;;
80313;SDS011;69628;47.516;18.828;2024-02-21T05:13:50;6.72;;;3.03;;
80313;SDS011;69628;47.516;18.828;2024-02-21T05:14:50;4.80;;;2.53;;
80313;SDS011;69628;47.516;18.828;2024-02-21T05:15:50;2.80;;;2.00;;
80313;SDS011;69628;47.516;18.828;2024-02-21T05:16:51;3.28;;;1.90;;
80313;SDS011;69628;47.516;18.828;2024-02-21T05:17:52;3.67;;;2.25;;
80313;SDS011;69628;47.516;18.828;2024-02-21T05:18:52;5.30;;;2.55;;
80313;SDS011;69628;47.516;18.828;2024-02-21T05:19:53;5.78;;;2.42;;
80313;SDS011;69628;47.516;18.828;2024-02-21T05:20:53;4.03;;;1.50;;
80313;SDS011;69628;47.516;18.828;2024-02-21T05:21:54;4.97;;;2.20;;
80313;SDS011;69628;47.516;18.828;2024-02-21T05:22:54;14.50;;;2.90;;
80313;SDS011;69628;47.516;18.828;2024-02-21T05:23:54;6.88;;;2.40;;
80313;SDS011;69628;47.516;18.828;2024-02-21T05:24:55;3.47;;;2.58;;
80313;SDS011;69628;47.516;18.828;2024-02-21T05:25:55;4.38;;;2.47;;
80313;SDS011;69628;47.516;18.828;2024-02-21T05:26:56;3.13;;;1.70;;
80313;SDS011;69628;47.516;18.828;2024-02-21T05:27:56;7.30;;;2.50;;
80313;SDS011;69628;47.516;18.828;2024-02-21T05:29:01;2.75;;;2.28;;
80313;SDS011;69628;47.516;18.828;2024-02-21T05:30:02;2.60;;;1.88;;
80313;SDS011;69628;47.516;18.828;2024-02-21T05:31:03;4.18;;;2.70;;
80313;SDS011;69628;47.516;18.828;2024-02-21T05:32:04;6.47;;;2.00;;
80313;SDS011;69628;47.516;18.828;2024-02-21T05:33:05;5.88;;;1.88;;
80313;SDS011;69628;47.516;18.828;2024-02-21T05:34:05;4.20;;;2.38;;
80313;SDS011;69628;47.516;18.828;2024-02-21T05:35:06;3.90;;;1.85;;
80313;SDS011;69628;47.516;18.828;2024-02-21T05:36:06;4.18;;;2.22;;
80313;SDS011;69628;47.516;18.828;2024-02-21T05:37:07;10.23;;;2.30;;
80313;SDS011;69628;47.516;18.828;2024-02-21T05:38:07;9.32;;;2.90;;
80313;SDS011;69628;47.516;18.828;2024-02-21T05:39:11;3.10;;;2.25;;
80313;SDS011;69628;47.516;18.828;2024-02-21T05:40:12;2.88;;;1.95;;
80313;SDS011;69628;47.516;18.828;2024-02-21T05:41:13;5.63;;;2.00;;
80313;SDS011;69628;47.516;18.828;2024-02-21T05:42:13;6.35;;;2.17;;
80313;SDS011;69628;47.516;18.828;2024-02-21T05:43:13;2.10;;;1.45;;
80313;SDS011;69628;47.516;18.828;2024-02-21T05:44:15;7.80;;;2.08;;
80313;SDS011;69628;47.516;18.828;2024-02-21T05:45:15;3.55;;;1.98;;
80313;SDS011;69628;47.516;18.828;2024-02-21T05:46:18;2.38;;;1.60;;
80313;SDS011;69628;47.516;18.828;2024-02-21T05:47:19;3.85;;;1.85;;
80313;SDS011;69628;47.516;18.828;2024-02-21T05:48:21;6.60;;;2.03;;
80313;SDS011;69628;47.516;18.828;2024-02-21T05:49:22;3.47;;;2.08;;
80313;SDS011;69628;47.516;18.828;2024-02-21T05:50:22;2.65;;;1.45;;
80313;SDS011;69628;47.516;18.828;2024-02-21T05:51:23;2.30;;;1.65;;
80313;SDS011;69628;47.516;18.828;2024-02-21T05:52:24;1.20;;;1.10;;
80313;SDS011;69628;47.516;18.828;2024-02-21T05:53:24;5.70;;;1.95;;
80313;SDS011;69628;47.516;18.828;2024-02-21T05:54:24;4.75;;;1.77;;
80313;SDS011;69628;47.516;18.828;2024-02-21T05:55:25;4.15;;;1.50;;
80313;SDS011;69628;47.516;18.828;2024-02-21T05:56:25;7.32;;;2.47;;
80313;SDS011;69628;47.516;18.828;2024-02-21T05:57:26;2.22;;;1.50;;
80313;SDS011;69628;47.516;18.828;2024-02-21T05:58:26;2.75;;;1.60;;
80313;SDS011;69628;47.516;18.828;2024-02-21T05:59:27;1.48;;;1.25;;
80313;SDS011;69628;47.516;18.828;2024-02-21T06:00:27;2.58;;;2.10;;